createdAt,value
2023-01-17T00:01:34.797Z,86.71
2023-01-17T00:04:20.449Z,86.97
2023-01-17T00:07:05.652Z,86.45
2023-01-17T00:09:51.098Z,87.04
2023-01-17T00:12:17.722Z,86.29
2023-01-17T00:14:44.429Z,86.96
2023-01-17T00:17:11.026Z,86.45
2023-01-17T00:19:55.999Z,86.73
2023-01-17T00:22:44.145Z,87.16
2023-01-17T00:25:31.440Z,86.83
2023-01-17T00:27:58.104Z,86.31
2023-01-17T00:30:24.778Z,87.31
2023-01-17T00:32:51.604Z,87.11
2023-01-17T00:35:19.220Z,86.96
2023-01-17T00:37:45.879Z,87.19
2023-01-17T00:40:12.506Z,86.60
2023-01-17T00:42:39.062Z,85.99
2023-01-17T00:45:24.493Z,87.17
2023-01-17T00:48:09.747Z,87.80
2023-01-17T00:50:56.558Z,87.56
2023-01-17T00:53:41.790Z,87.12
2023-01-17T00:56:27.193Z,87.73
2023-01-17T00:59:12.811Z,88.37
2023-01-17T01:01:58.319Z,87.80
2023-01-17T01:04:43.458Z,88.85
2023-01-17T01:07:28.669Z,89.00
2023-01-17T01:10:13.967Z,89.94
2023-01-17T01:12:59.242Z,90.18
2023-01-17T01:15:44.595Z,90.80
2023-01-17T01:18:30.784Z,91.16
2023-01-17T01:21:21.288Z,91.69
2023-01-17T01:24:06.833Z,91.45
2023-01-17T01:26:52.090Z,91.64
2023-01-17T01:29:37.378Z,91.50
2023-01-17T01:32:22.756Z,90.79
2023-01-17T01:34:49.333Z,90.18
2023-01-17T01:37:15.916Z,91.34
2023-01-17T01:39:42.468Z,91.71
2023-01-17T01:42:15.513Z,91.75
2023-01-17T01:44:50.787Z,91.97
2023-01-17T01:47:30.470Z,90.79
2023-01-17T01:50:00.154Z,90.61
2023-01-17T01:52:30.718Z,90.23
2023-01-17T01:55:07.955Z,89.53
2023-01-17T01:57:40.837Z,89.57
2023-01-17T02:00:14.657Z,89.91
2023-01-17T02:02:45.684Z,89.75
2023-01-17T02:05:16.361Z,90.38
2023-01-17T02:07:51.616Z,89.45
2023-01-17T02:10:18.355Z,89.15
2023-01-17T02:12:45.785Z,89.25
2023-01-17T02:15:12.747Z,89.87
2023-01-17T02:18:05.656Z,89.81
2023-01-17T02:20:59.464Z,89.14
2023-01-17T02:23:45.179Z,88.11
2023-01-17T02:26:23.483Z,87.62
2023-01-17T02:29:25.561Z,87.14
2023-01-17T02:32:01.161Z,87.26
2023-01-17T02:34:45.692Z,88.08
2023-01-17T02:37:23.144Z,87.85
2023-01-17T02:39:56.184Z,87.50
2023-01-17T02:42:30.247Z,87.90
2023-01-17T02:44:56.811Z,88.22
2023-01-17T02:47:26.320Z,87.33
2023-01-17T02:49:55.786Z,88.09
2023-01-17T02:52:37.490Z,87.91
2023-01-17T02:55:23.162Z,88.22
2023-01-17T02:58:01.927Z,87.86
2023-01-17T03:00:42.976Z,88.58
2023-01-17T03:03:40.308Z,88.39
2023-01-17T03:06:21.648Z,89.35
2023-01-17T03:08:51.695Z,89.29
2023-01-17T03:11:19.086Z,89.09
2023-01-17T03:13:45.693Z,89.34
2023-01-17T03:16:20.651Z,89.39
2023-01-17T03:18:47.540Z,88.96
2023-01-17T03:21:14.288Z,89.10
2023-01-17T03:23:40.887Z,89.25
2023-01-17T03:26:07.490Z,89.75
2023-01-17T03:28:34.185Z,89.13
2023-01-17T03:31:00.848Z,88.88
2023-01-17T03:33:27.495Z,89.02
2023-01-17T03:35:54.896Z,88.83
2023-01-17T03:38:21.976Z,89.08
2023-01-17T03:40:48.836Z,89.85
2023-01-17T03:43:15.508Z,90.26
2023-01-17T03:45:42.133Z,88.53
2023-01-17T03:48:08.819Z,88.95
2023-01-17T03:50:35.541Z,89.22
2023-01-17T03:53:02.165Z,88.66
2023-01-17T03:55:28.753Z,88.22
2023-01-17T03:57:55.307Z,88.35
2023-01-17T04:00:22.584Z,87.95
2023-01-17T04:02:49.259Z,86.98
2023-01-17T04:05:16.161Z,86.64
2023-01-17T04:07:43.017Z,86.20
2023-01-17T04:10:10.174Z,86.48
2023-01-17T04:12:36.776Z,86.13
2023-01-17T04:15:03.525Z,86.84
2023-01-17T04:17:30.147Z,86.09
2023-01-17T04:19:56.822Z,86.17
2023-01-17T04:22:23.398Z,86.57
2023-01-17T04:24:49.986Z,86.35
2023-01-17T04:27:16.669Z,86.38
2023-01-17T04:29:44.784Z,86.80
2023-01-17T04:32:13.104Z,87.01
2023-01-17T04:34:39.743Z,87.38
2023-01-17T04:37:06.367Z,87.74
2023-01-17T04:39:32.982Z,87.31
2023-01-17T04:41:59.649Z,87.21
2023-01-17T04:44:26.459Z,86.99
2023-01-17T04:46:53.044Z,87.09
2023-01-17T04:49:19.634Z,86.63
2023-01-17T04:51:46.239Z,87.37
2023-01-17T04:54:12.821Z,87.33
2023-01-17T04:56:39.372Z,87.76
2023-01-17T04:59:06.039Z,87.68
2023-01-17T05:01:32.744Z,88.24
2023-01-17T05:03:59.400Z,88.80
2023-01-17T05:06:26.051Z,88.88
2023-01-17T05:08:52.596Z,89.41
2023-01-17T05:11:19.221Z,89.94
2023-01-17T05:13:48.413Z,90.00
2023-01-17T05:16:19.256Z,90.23
2023-01-17T05:18:45.912Z,90.07
2023-01-17T05:21:12.545Z,89.74
2023-01-17T05:23:40.505Z,90.27
2023-01-17T05:26:07.125Z,90.40
2023-01-17T05:28:33.691Z,91.59
2023-01-17T05:31:00.459Z,91.84
2023-01-17T05:33:27.118Z,91.89
2023-01-17T05:35:53.766Z,92.35
2023-01-17T05:38:20.550Z,92.83
2023-01-17T05:40:47.138Z,92.35
2023-01-17T05:43:13.721Z,92.54
2023-01-17T05:45:40.345Z,93.46
2023-01-17T05:48:06.936Z,92.53
2023-01-17T05:50:37.989Z,93.95
2023-01-17T05:53:07.756Z,93.17
2023-01-17T05:55:35.546Z,93.25
2023-01-17T05:58:02.429Z,94.36
2023-01-17T06:00:29.774Z,93.34
2023-01-17T06:02:58.441Z,93.96
2023-01-17T06:05:26.152Z,93.27
2023-01-17T06:07:52.937Z,94.35
2023-01-17T06:10:20.992Z,94.81
2023-01-17T06:12:48.219Z,93.48
2023-01-17T06:15:17.039Z,94.03
2023-01-17T06:17:43.639Z,94.67
2023-01-17T06:20:12.036Z,92.98
2023-01-17T06:22:38.606Z,94.07
2023-01-17T06:25:05.610Z,93.99
2023-01-17T06:27:32.344Z,93.97
2023-01-17T06:29:58.921Z,94.36
2023-01-17T06:32:25.494Z,94.59
2023-01-17T06:34:52.101Z,95.05
2023-01-17T06:37:18.675Z,93.90
2023-01-17T06:39:45.592Z,95.76
2023-01-17T06:42:12.280Z,94.36
2023-01-17T06:44:38.961Z,94.34
2023-01-17T06:47:05.551Z,94.14
2023-01-17T06:49:32.276Z,95.05
2023-01-17T06:51:58.908Z,94.21
2023-01-17T06:54:25.678Z,94.57
2023-01-17T06:56:52.232Z,94.77
2023-01-17T06:59:18.783Z,94.75
2023-01-17T07:01:45.731Z,95.04
2023-01-17T07:04:12.336Z,94.60
2023-01-17T07:06:38.997Z,94.67
2023-01-17T07:09:05.688Z,95.05
2023-01-17T07:11:32.522Z,95.83
2023-01-17T07:13:59.217Z,96.69
2023-01-17T07:16:25.947Z,94.66
2023-01-17T07:18:54.718Z,95.24
2023-01-17T07:21:22.720Z,94.08
2023-01-17T07:23:49.396Z,96.38
2023-01-17T07:26:17.352Z,95.54
2023-01-17T07:28:44.226Z,93.49
2023-01-17T07:31:11.258Z,95.88
2023-01-17T07:33:37.979Z,96.26
2023-01-17T07:36:09.398Z,94.95
2023-01-17T07:38:36.335Z,94.54
2023-01-17T07:41:03.460Z,94.03
2023-01-17T07:43:30.075Z,93.55
2023-01-17T07:45:56.746Z,93.45
2023-01-17T07:48:25.003Z,93.77
2023-01-17T07:50:56.030Z,94.35
2023-01-17T07:53:27.735Z,94.30
2023-01-17T07:55:54.488Z,94.07
2023-01-17T07:58:22.228Z,94.54
2023-01-17T08:00:48.901Z,93.68
2023-01-17T08:03:17.819Z,91.80
2023-01-17T08:05:53.835Z,89.52
2023-01-17T08:08:20.472Z,89.72
2023-01-17T08:10:47.334Z,91.49
2023-01-17T08:13:13.957Z,91.87
2023-01-17T08:15:40.934Z,90.51
2023-01-17T08:18:07.499Z,89.78
2023-01-17T08:20:34.123Z,90.92
2023-01-17T08:23:00.833Z,90.11
2023-01-17T08:25:27.651Z,89.73
2023-01-17T08:27:58.141Z,89.22
2023-01-17T08:30:25.492Z,89.47
2023-01-17T08:32:52.081Z,87.51
2023-01-17T08:35:20.121Z,87.28
2023-01-17T08:37:48.408Z,86.15
2023-01-17T08:40:17.186Z,85.75
2023-01-17T08:42:44.277Z,85.45
2023-01-17T08:45:12.146Z,85.22
2023-01-17T08:47:38.789Z,85.29
2023-01-17T08:50:06.756Z,84.78
2023-01-17T08:52:33.705Z,83.85
2023-01-17T08:55:00.257Z,83.48
2023-01-17T08:57:26.853Z,83.35
2023-01-17T08:59:53.467Z,82.28
2023-01-17T09:02:20.495Z,83.38
2023-01-17T09:04:48.689Z,83.05
2023-01-17T09:07:16.587Z,82.34
2023-01-17T09:09:43.151Z,82.34
2023-01-17T09:12:09.964Z,81.42
2023-01-17T09:14:37.482Z,81.08
2023-01-17T09:17:05.761Z,80.39
2023-01-17T09:19:32.893Z,79.51
2023-01-17T09:21:59.453Z,80.06
2023-01-17T09:24:26.044Z,80.22
2023-01-17T09:26:52.639Z,79.28
2023-01-17T09:29:19.202Z,78.00
2023-01-17T09:31:48.107Z,79.67
2023-01-17T09:34:14.780Z,78.29
2023-01-17T09:36:42.313Z,77.71
2023-01-17T09:39:10.593Z,77.01
2023-01-17T09:42:02.021Z,76.06
2023-01-17T09:44:43.038Z,75.53
2023-01-17T09:47:36.496Z,76.13
2023-01-17T09:50:42.117Z,76.08
2023-01-17T09:53:20.936Z,74.23
2023-01-17T09:56:00.698Z,75.41
2023-01-17T09:59:19.019Z,75.92
2023-01-17T10:01:58.037Z,74.98
2023-01-17T10:04:43.611Z,74.47
2023-01-17T10:07:28.707Z,74.25
2023-01-17T10:10:12.026Z,75.99
2023-01-17T10:13:00.472Z,73.69
2023-01-17T10:16:18.140Z,73.74
2023-01-17T10:19:03.887Z,71.35
2023-01-17T10:21:41.581Z,72.34
2023-01-17T10:24:57.595Z,70.69
2023-01-17T10:27:34.375Z,69.75
2023-01-17T10:30:16.788Z,72.32
2023-01-17T10:32:48.360Z,70.32
2023-01-17T10:35:29.821Z,69.09
2023-01-17T10:37:58.542Z,70.04
2023-01-17T10:40:38.407Z,70.09
2023-01-17T10:43:15.092Z,71.09
2023-01-17T10:45:51.386Z,69.02
2023-01-17T10:48:38.869Z,67.35
2023-01-17T10:51:43.067Z,68.16
2023-01-17T10:54:29.947Z,66.28
2023-01-17T10:56:58.292Z,69.29
2023-01-17T10:59:33.532Z,67.37
2023-01-17T11:02:07.825Z,66.84
2023-01-17T11:04:38.300Z,65.13
2023-01-17T11:07:19.887Z,63.29
2023-01-17T11:09:51.684Z,62.11
2023-01-17T11:12:41.678Z,63.13
2023-01-17T11:15:11.288Z,62.09
2023-01-17T11:17:53.100Z,62.83
2023-01-17T11:20:42.995Z,61.33
2023-01-17T11:23:21.116Z,59.00
2023-01-17T11:26:02.428Z,58.41
2023-01-17T11:28:32.349Z,57.90
2023-01-17T11:31:07.517Z,55.66
2023-01-17T11:33:46.544Z,55.14
2023-01-17T11:36:22.001Z,54.52
2023-01-17T11:38:59.686Z,54.59
2023-01-17T11:41:28.233Z,54.51
2023-01-17T11:43:59.072Z,55.95
2023-01-17T11:46:29.125Z,52.14
2023-01-17T11:49:00.686Z,55.70
2023-01-17T11:51:29.205Z,54.08
2023-01-17T11:54:08.386Z,54.54
2023-01-17T11:56:37.286Z,54.59
2023-01-17T11:59:22.607Z,51.75
2023-01-17T12:02:02.414Z,53.08
2023-01-17T12:04:40.869Z,55.33
2023-01-17T12:07:20.473Z,53.84
2023-01-17T12:10:00.222Z,53.82
2023-01-17T12:13:00.639Z,55.19
2023-01-17T12:15:50.891Z,53.04
2023-01-17T12:18:24.629Z,53.84
2023-01-17T12:21:14.491Z,53.57
2023-01-17T12:24:01.402Z,49.67
2023-01-17T12:26:40.281Z,53.87
2023-01-17T12:29:30.269Z,50.95
2023-01-17T12:32:27.612Z,51.88
2023-01-17T12:35:15.402Z,51.21
2023-01-17T12:37:45.768Z,52.49
2023-01-17T12:40:22.214Z,52.22
2023-01-17T12:42:56.089Z,54.96
2023-01-17T12:45:32.120Z,52.56
2023-01-17T12:48:05.591Z,51.90
2023-01-17T12:50:49.043Z,52.08
2023-01-17T12:53:23.737Z,51.51
2023-01-17T12:56:06.674Z,51.22
2023-01-17T12:59:15.704Z,51.93
2023-01-17T13:01:57.365Z,51.17
2023-01-17T13:04:26.898Z,52.63
2023-01-17T13:06:59.691Z,55.21
2023-01-17T13:09:34.545Z,56.05
2023-01-17T13:12:06.271Z,55.32
2023-01-17T13:14:32.994Z,56.66
2023-01-17T13:17:05.959Z,58.46
2023-01-17T13:19:57.182Z,57.94
2023-01-17T13:22:27.070Z,60.00
2023-01-17T13:25:14.647Z,56.77
2023-01-17T13:28:23.959Z,57.88
2023-01-17T13:31:18.567Z,57.24
2023-01-17T13:34:04.909Z,57.42
2023-01-17T13:36:45.827Z,56.72
2023-01-17T13:39:40.063Z,54.65
2023-01-17T13:42:14.789Z,55.79
2023-01-17T13:44:41.946Z,54.20
2023-01-17T13:47:17.788Z,55.93
2023-01-17T13:49:44.649Z,56.91
2023-01-17T13:52:27.102Z,58.84
2023-01-17T13:54:56.523Z,57.70
2023-01-17T13:57:23.032Z,56.28
2023-01-17T13:59:49.993Z,55.78
2023-01-17T14:02:31.414Z,54.86
2023-01-17T14:05:23.114Z,55.05
2023-01-17T14:08:15.097Z,56.92
2023-01-17T14:10:52.088Z,55.82
2023-01-17T14:13:45.046Z,56.41
2023-01-17T14:16:28.963Z,56.88
2023-01-17T14:18:55.956Z,56.37
2023-01-17T14:21:25.384Z,56.93
2023-01-17T14:24:16.352Z,59.98
2023-01-17T14:27:19.775Z,58.75
2023-01-17T14:29:50.843Z,64.09
2023-01-17T14:32:23.618Z,59.89
2023-01-17T14:34:52.168Z,58.48
2023-01-17T14:37:29.411Z,59.33
2023-01-17T14:39:56.266Z,59.58
2023-01-17T14:42:26.322Z,57.97
2023-01-17T14:45:00.300Z,59.28
2023-01-17T14:47:31.834Z,60.26
2023-01-17T14:50:22.322Z,59.53
2023-01-17T14:53:11.306Z,64.02
2023-01-17T14:55:49.055Z,64.70
2023-01-17T14:58:31.677Z,65.26
2023-01-17T15:01:07.316Z,69.29
2023-01-17T15:03:43.335Z,71.10
2023-01-17T15:06:12.795Z,73.33
2023-01-17T15:08:39.609Z,69.24
2023-01-17T15:11:10.031Z,71.63
2023-01-17T15:13:45.292Z,71.33
2023-01-17T15:16:27.782Z,69.08
2023-01-17T15:18:55.651Z,71.90
2023-01-17T15:21:24.799Z,72.06
2023-01-17T15:23:57.489Z,74.24
2023-01-17T15:26:27.341Z,76.60
2023-01-17T15:29:06.980Z,74.28
2023-01-17T15:31:42.796Z,76.13
2023-01-17T15:34:26.242Z,75.15
2023-01-17T15:36:53.668Z,76.63
2023-01-17T15:39:40.401Z,75.90
2023-01-17T15:42:18.345Z,74.59
2023-01-17T15:44:48.815Z,73.45
2023-01-17T15:47:32.784Z,72.61
2023-01-17T15:50:01.897Z,72.75
2023-01-17T15:52:29.194Z,73.21
2023-01-17T15:55:13.546Z,74.84
2023-01-17T15:57:40.249Z,76.12
2023-01-17T16:00:20.326Z,77.32
2023-01-17T16:02:55.415Z,77.51
2023-01-17T16:05:22.626Z,76.51
2023-01-17T16:07:54.610Z,76.40
2023-01-17T16:10:21.432Z,75.87
2023-01-17T16:12:50.489Z,75.78
2023-01-17T16:15:18.576Z,77.36
2023-01-17T16:17:48.526Z,78.48
2023-01-17T16:20:20.567Z,78.48
2023-01-17T16:22:47.317Z,78.57
2023-01-17T16:25:16.714Z,78.46
2023-01-17T16:27:43.636Z,79.30
2023-01-17T16:30:12.267Z,79.51
2023-01-17T16:32:38.883Z,78.53
2023-01-17T16:35:07.149Z,78.23
2023-01-17T16:37:33.699Z,79.06
2023-01-17T16:40:00.555Z,81.58
2023-01-17T16:42:28.684Z,80.40
2023-01-17T16:44:55.407Z,79.59
2023-01-17T16:47:22.564Z,79.11
2023-01-17T16:49:49.289Z,78.75
2023-01-17T16:52:16.659Z,80.86
2023-01-17T16:54:44.310Z,80.27
2023-01-17T16:57:10.988Z,80.29
2023-01-17T16:59:50.155Z,79.69
2023-01-17T17:02:18.623Z,80.87
2023-01-17T17:04:45.591Z,81.72
2023-01-17T17:07:12.177Z,82.56
2023-01-17T17:09:38.753Z,83.43
2023-01-17T17:12:05.883Z,82.98
2023-01-17T17:14:32.690Z,82.59
2023-01-17T17:17:02.057Z,82.47
2023-01-17T17:19:28.637Z,81.74
2023-01-17T17:21:58.442Z,82.65
2023-01-17T17:24:25.832Z,82.44
2023-01-17T17:26:52.969Z,81.35
2023-01-17T17:29:20.302Z,80.95
2023-01-17T17:31:47.171Z,79.82
2023-01-17T17:34:15.300Z,79.45
2023-01-17T17:36:42.860Z,79.54
2023-01-17T17:39:15.281Z,81.44
2023-01-17T17:41:44.954Z,80.77
2023-01-17T17:44:12.404Z,81.29
2023-01-17T17:46:39.098Z,80.70
2023-01-17T17:49:08.363Z,81.36
2023-01-17T17:51:37.792Z,80.87
2023-01-17T17:54:07.828Z,82.40
2023-01-17T17:56:35.245Z,83.25
2023-01-17T17:59:03.874Z,83.16
2023-01-17T18:01:32.063Z,83.72
2023-01-17T18:04:03.081Z,85.53
2023-01-17T18:06:30.559Z,86.24
2023-01-17T18:08:57.698Z,85.58
2023-01-17T18:11:26.791Z,84.66
2023-01-17T18:13:55.314Z,85.45
2023-01-17T18:16:28.169Z,84.26
2023-01-17T18:18:57.179Z,85.21
2023-01-17T18:21:34.884Z,85.22
2023-01-17T18:24:04.972Z,84.21
2023-01-17T18:26:46.061Z,85.31
2023-01-17T18:29:15.800Z,86.20
2023-01-17T18:31:44.680Z,85.76
2023-01-17T18:34:15.512Z,87.36
2023-01-17T18:36:43.238Z,86.71
2023-01-17T18:39:18.801Z,87.66
2023-01-17T18:41:46.299Z,85.72
2023-01-17T18:44:13.540Z,86.71
2023-01-17T18:46:42.012Z,86.52
2023-01-17T18:49:12.811Z,86.82
2023-01-17T18:51:39.454Z,85.23
2023-01-17T18:54:08.897Z,86.16
2023-01-17T18:56:36.000Z,86.57
2023-01-17T18:59:05.948Z,85.13
2023-01-17T19:01:35.985Z,84.42
2023-01-17T19:04:04.551Z,84.02
2023-01-17T19:06:33.917Z,85.83
2023-01-17T19:09:01.921Z,86.58
2023-01-17T19:11:30.520Z,86.43
2023-01-17T19:13:57.327Z,86.43
2023-01-17T19:16:30.266Z,86.02
2023-01-17T19:19:01.497Z,85.20
2023-01-17T19:21:29.062Z,86.20
2023-01-17T19:23:58.425Z,84.91
2023-01-17T19:26:27.310Z,84.55
2023-01-17T19:28:56.821Z,84.02
2023-01-17T19:31:26.250Z,84.24
2023-01-17T19:33:57.777Z,83.56
2023-01-17T19:36:28.977Z,82.37
2023-01-17T19:39:04.361Z,84.03
2023-01-17T19:41:34.739Z,87.00
2023-01-17T19:44:03.548Z,86.48
2023-01-17T19:46:32.271Z,85.50
2023-01-17T19:48:59.677Z,83.45
2023-01-17T19:51:27.781Z,83.72
2023-01-17T19:53:57.447Z,83.22
2023-01-17T19:56:27.933Z,83.47
2023-01-17T19:58:57.339Z,83.66
2023-01-17T20:01:28.403Z,84.16
2023-01-17T20:03:57.831Z,84.77
2023-01-17T20:06:28.120Z,84.50
2023-01-17T20:08:55.481Z,84.60
2023-01-17T20:11:23.519Z,84.83
2023-01-17T20:13:56.810Z,84.34
2023-01-17T20:16:26.000Z,85.55
2023-01-17T20:18:53.094Z,85.43
2023-01-17T20:21:22.708Z,85.68
2023-01-17T20:23:51.755Z,86.00
2023-01-17T20:26:35.164Z,86.67
2023-01-17T20:29:10.957Z,85.38
2023-01-17T20:31:38.693Z,86.82
2023-01-17T20:34:06.769Z,85.83
2023-01-17T20:36:34.262Z,86.29
2023-01-17T20:39:03.795Z,84.92
2023-01-17T20:41:32.563Z,84.89
2023-01-17T20:44:00.958Z,85.68
2023-01-17T20:46:31.351Z,86.52
2023-01-17T20:48:58.547Z,86.77
2023-01-17T20:51:27.871Z,87.53
2023-01-17T20:53:57.142Z,86.65
2023-01-17T20:56:24.606Z,86.65
2023-01-17T20:58:52.262Z,85.09
2023-01-17T21:01:19.869Z,85.93
2023-01-17T21:03:49.799Z,85.29
2023-01-17T21:06:16.652Z,85.66
2023-01-17T21:08:45.411Z,87.10
2023-01-17T21:11:15.361Z,86.53
2023-01-17T21:13:43.017Z,86.61
2023-01-17T21:16:12.810Z,86.30
2023-01-17T21:18:39.453Z,86.03
2023-01-17T21:21:21.902Z,87.05
2023-01-17T21:23:50.373Z,86.01
2023-01-17T21:26:19.569Z,86.74
2023-01-17T21:28:48.438Z,85.78
2023-01-17T21:31:24.533Z,83.91
2023-01-17T21:34:00.186Z,83.55
2023-01-17T21:36:30.628Z,85.30
2023-01-17T21:39:04.159Z,86.62
2023-01-17T21:41:33.796Z,86.86
2023-01-17T21:44:03.144Z,85.96
2023-01-17T21:46:30.536Z,87.62
2023-01-17T21:48:58.019Z,88.66
2023-01-17T21:51:44.982Z,88.64
2023-01-17T21:54:11.584Z,87.80
2023-01-17T21:56:57.071Z,88.06
2023-01-17T21:59:24.287Z,88.37
2023-01-17T22:01:51.004Z,87.99
2023-01-17T22:04:17.616Z,88.12
2023-01-17T22:06:44.205Z,89.02
2023-01-17T22:09:10.789Z,88.26
2023-01-17T22:11:37.483Z,88.58
2023-01-17T22:14:05.575Z,87.36
2023-01-17T22:16:32.487Z,89.01
2023-01-17T22:18:59.337Z,89.53
2023-01-17T22:21:28.286Z,89.27
2023-01-17T22:23:57.162Z,88.79
2023-01-17T22:26:30.051Z,88.80
2023-01-17T22:28:59.776Z,89.64
2023-01-17T22:31:27.736Z,89.55
2023-01-17T22:33:56.651Z,90.13
2023-01-17T22:36:24.348Z,90.69
2023-01-17T22:38:50.975Z,90.93
2023-01-17T22:41:23.766Z,89.79
2023-01-17T22:43:54.079Z,89.65
2023-01-17T22:46:31.105Z,90.61
2023-01-17T22:48:58.337Z,90.72
2023-01-17T22:51:27.011Z,91.05
2023-01-17T22:53:56.550Z,90.85
2023-01-17T22:56:28.198Z,90.36
2023-01-17T22:58:55.389Z,90.49
2023-01-17T23:01:25.512Z,90.29
2023-01-17T23:04:00.798Z,90.71
2023-01-17T23:06:33.331Z,90.65
2023-01-17T23:09:03.217Z,89.77
2023-01-17T23:11:43.847Z,90.79
2023-01-17T23:14:18.644Z,91.20
2023-01-17T23:17:08.361Z,91.08
2023-01-17T23:19:43.889Z,89.96
2023-01-17T23:22:20.245Z,88.21
2023-01-17T23:24:48.493Z,85.72
2023-01-17T23:27:40.094Z,84.13
2023-01-17T23:30:15.961Z,82.74
2023-01-17T23:33:06.706Z,83.57
2023-01-17T23:35:41.293Z,82.78
2023-01-17T23:38:31.210Z,82.40
2023-01-17T23:41:27.648Z,81.00
2023-01-17T23:43:58.985Z,80.78
2023-01-17T23:46:27.429Z,80.44
2023-01-17T23:48:55.241Z,80.99
2023-01-17T23:51:22.458Z,80.65
2023-01-17T23:53:50.964Z,81.22
2023-01-17T23:56:21.691Z,80.90
2023-01-17T23:58:48.807Z,81.02
